sensor_id;sensor_type;location;lat;lon;timestamp;P1;durP1;ratioP1;P2;durP2;ratioP2
65387;SDS011;51992;53.528;49.474;2023-11-21T00:00:44;0.00;;;0.00;;
65387;SDS011;51992;53.528;49.474;2023-11-21T00:03:11;0.17;;;0.10;;
65387;SDS011;51992;53.528;49.474;2023-11-21T00:05:40;0.00;;;0.00;;
65387;SDS011;51992;53.528;49.474;2023-11-21T00:08:09;0.00;;;0.00;;
65387;SDS011;51992;53.528;49.474;2023-11-21T00:10:36;0.40;;;0.20;;
65387;SDS011;51992;53.528;49.474;2023-11-21T00:13:04;0.30;;;0.30;;
65387;SDS011;51992;53.528;49.474;2023-11-21T00:15:29;0.00;;;0.00;;
65387;SDS011;51992;53.528;49.474;2023-11-21T00:17:55;0.22;;;0.20;;
65387;SDS011;51992;53.528;49.474;2023-11-21T00:20:21;0.00;;;0.00;;
65387;SDS011;51992;53.528;49.474;2023-11-21T00:22:47;0.10;;;0.10;;
65387;SDS011;51992;53.528;49.474;2023-11-21T00:25:13;0.20;;;0.17;;
65387;SDS011;51992;53.528;49.474;2023-11-21T00:27:41;0.00;;;0.00;;
65387;SDS011;51992;53.528;49.474;2023-11-21T00:30:06;0.00;;;0.00;;
65387;SDS011;51992;53.528;49.474;2023-11-21T00:32:35;0.10;;;0.10;;
65387;SDS011;51992;53.528;49.474;2023-11-21T00:35:01;0.00;;;0.00;;
65387;SDS011;51992;53.528;49.474;2023-11-21T00:37:27;0.10;;;0.10;;
65387;SDS011;51992;53.528;49.474;2023-11-21T00:39:52;0.22;;;0.22;;
65387;SDS011;51992;53.528;49.474;2023-11-21T00:42:18;0.10;;;0.10;;
65387;SDS011;51992;53.528;49.474;2023-11-21T00:44:44;0.05;;;0.03;;
65387;SDS011;51992;53.528;49.474;2023-11-21T00:47:10;0.20;;;0.20;;
65387;SDS011;51992;53.528;49.474;2023-11-21T00:49:35;0.00;;;0.00;;
65387;SDS011;51992;53.528;49.474;2023-11-21T00:52:01;0.00;;;0.00;;
65387;SDS011;51992;53.528;49.474;2023-11-21T00:54:28;0.00;;;0.00;;
65387;SDS011;51992;53.528;49.474;2023-11-21T00:56:54;0.25;;;0.22;;
65387;SDS011;51992;53.528;49.474;2023-11-21T00:59:19;0.00;;;0.00;;
65387;SDS011;51992;53.528;49.474;2023-11-21T01:01:45;0.00;;;0.00;;
65387;SDS011;51992;53.528;49.474;2023-11-21T01:04:11;0.00;;;0.00;;
65387;SDS011;51992;53.528;49.474;2023-11-21T01:06:36;0.00;;;0.00;;
65387;SDS011;51992;53.528;49.474;2023-11-21T01:09:02;0.00;;;0.00;;
65387;SDS011;51992;53.528;49.474;2023-11-21T01:11:34;0.00;;;0.00;;
65387;SDS011;51992;53.528;49.474;2023-11-21T01:14:01;0.00;;;0.00;;
65387;SDS011;51992;53.528;49.474;2023-11-21T01:16:28;0.20;;;0.20;;
65387;SDS011;51992;53.528;49.474;2023-11-21T01:18:54;0.00;;;0.00;;
65387;SDS011;51992;53.528;49.474;2023-11-21T01:21:20;0.22;;;0.17;;
65387;SDS011;51992;53.528;49.474;2023-11-21T01:23:45;0.00;;;0.00;;
65387;SDS011;51992;53.528;49.474;2023-11-21T01:26:12;0.20;;;0.20;;
65387;SDS011;51992;53.528;49.474;2023-11-21T01:28:38;0.00;;;0.00;;
65387;SDS011;51992;53.528;49.474;2023-11-21T01:31:04;0.00;;;0.00;;
65387;SDS011;51992;53.528;49.474;2023-11-21T01:33:30;0.13;;;0.13;;
65387;SDS011;51992;53.528;49.474;2023-11-21T01:35:55;0.00;;;0.00;;
65387;SDS011;51992;53.528;49.474;2023-11-21T01:38:21;0.00;;;0.00;;
65387;SDS011;51992;53.528;49.474;2023-11-21T01:40:47;0.00;;;0.00;;
65387;SDS011;51992;53.528;49.474;2023-11-21T01:43:13;1.45;;;0.40;;
65387;SDS011;51992;53.528;49.474;2023-11-21T01:45:39;0.00;;;0.00;;
65387;SDS011;51992;53.528;49.474;2023-11-21T01:48:04;0.10;;;0.10;;
65387;SDS011;51992;53.528;49.474;2023-11-21T01:50:32;0.00;;;0.00;;
65387;SDS011;51992;53.528;49.474;2023-11-21T01:52:59;0.20;;;0.10;;
65387;SDS011;51992;53.528;49.474;2023-11-21T01:55:25;0.00;;;0.00;;
65387;SDS011;51992;53.528;49.474;2023-11-21T01:57:53;0.00;;;0.00;;
65387;SDS011;51992;53.528;49.474;2023-11-21T02:00:19;0.00;;;0.00;;
65387;SDS011;51992;53.528;49.474;2023-11-21T02:02:45;0.00;;;0.00;;
65387;SDS011;51992;53.528;49.474;2023-11-21T02:05:11;0.10;;;0.10;;
65387;SDS011;51992;53.528;49.474;2023-11-21T02:07:40;0.00;;;0.00;;
65387;SDS011;51992;53.528;49.474;2023-11-21T02:10:07;0.00;;;0.00;;
65387;SDS011;51992;53.528;49.474;2023-11-21T02:12:33;0.00;;;0.00;;
65387;SDS011;51992;53.528;49.474;2023-11-21T02:15:03;0.38;;;0.20;;
65387;SDS011;51992;53.528;49.474;2023-11-21T02:17:41;0.00;;;0.00;;
65387;SDS011;51992;53.528;49.474;2023-11-21T02:20:07;0.40;;;0.30;;
65387;SDS011;51992;53.528;49.474;2023-11-21T02:22:33;0.00;;;0.00;;
65387;SDS011;51992;53.528;49.474;2023-11-21T02:25:02;0.00;;;0.00;;
65387;SDS011;51992;53.528;49.474;2023-11-21T02:27:28;0.77;;;0.43;;
65387;SDS011;51992;53.528;49.474;2023-11-21T02:29:54;0.10;;;0.10;;
65387;SDS011;51992;53.528;49.474;2023-11-21T02:32:20;0.00;;;0.00;;
65387;SDS011;51992;53.528;49.474;2023-11-21T02:34:48;0.00;;;0.00;;
65387;SDS011;51992;53.528;49.474;2023-11-21T02:37:14;0.00;;;0.00;;
65387;SDS011;51992;53.528;49.474;2023-11-21T02:39:39;0.20;;;0.20;;
65387;SDS011;51992;53.528;49.474;2023-11-21T02:42:05;0.00;;;0.00;;
65387;SDS011;51992;53.528;49.474;2023-11-21T02:44:31;0.05;;;0.05;;
65387;SDS011;51992;53.528;49.474;2023-11-21T02:46:56;0.00;;;0.00;;
65387;SDS011;51992;53.528;49.474;2023-11-21T02:49:23;0.08;;;0.00;;
65387;SDS011;51992;53.528;49.474;2023-11-21T02:51:49;0.00;;;0.00;;
65387;SDS011;51992;53.528;49.474;2023-11-21T02:54:15;0.00;;;0.00;;
65387;SDS011;51992;53.528;49.474;2023-11-21T02:56:42;0.00;;;0.00;;
65387;SDS011;51992;53.528;49.474;2023-11-21T02:59:08;0.00;;;0.00;;
65387;SDS011;51992;53.528;49.474;2023-11-21T03:01:34;0.10;;;0.10;;
65387;SDS011;51992;53.528;49.474;2023-11-21T03:04:00;0.00;;;0.00;;
65387;SDS011;51992;53.528;49.474;2023-11-21T03:06:25;0.00;;;0.00;;
65387;SDS011;51992;53.528;49.474;2023-11-21T03:08:51;1.35;;;0.90;;
65387;SDS011;51992;53.528;49.474;2023-11-21T03:11:17;0.00;;;0.00;;
65387;SDS011;51992;53.528;49.474;2023-11-21T03:13:42;0.08;;;0.08;;
65387;SDS011;51992;53.528;49.474;2023-11-21T03:16:09;0.00;;;0.00;;
65387;SDS011;51992;53.528;49.474;2023-11-21T03:18:36;0.35;;;0.35;;
65387;SDS011;51992;53.528;49.474;2023-11-21T03:21:03;0.10;;;0.00;;
65387;SDS011;51992;53.528;49.474;2023-11-21T03:23:28;0.00;;;0.00;;
65387;SDS011;51992;53.528;49.474;2023-11-21T03:25:54;0.00;;;0.00;;
65387;SDS011;51992;53.528;49.474;2023-11-21T03:28:20;0.00;;;0.00;;
65387;SDS011;51992;53.528;49.474;2023-11-21T03:30:46;0.00;;;0.00;;
65387;SDS011;51992;53.528;49.474;2023-11-21T03:33:12;0.00;;;0.00;;
65387;SDS011;51992;53.528;49.474;2023-11-21T03:35:37;0.00;;;0.00;;
65387;SDS011;51992;53.528;49.474;2023-11-21T03:38:06;0.00;;;0.00;;
65387;SDS011;51992;53.528;49.474;2023-11-21T03:40:32;0.00;;;0.00;;
65387;SDS011;51992;53.528;49.474;2023-11-21T03:42:58;0.00;;;0.00;;
65387;SDS011;51992;53.528;49.474;2023-11-21T03:45:23;0.00;;;0.00;;
65387;SDS011;51992;53.528;49.474;2023-11-21T03:47:49;0.00;;;0.00;;
65387;SDS011;51992;53.528;49.474;2023-11-21T03:50:15;0.00;;;0.00;;
65387;SDS011;51992;53.528;49.474;2023-11-21T03:52:42;0.00;;;0.00;;
65387;SDS011;51992;53.528;49.474;2023-11-21T03:55:08;0.00;;;0.00;;
65387;SDS011;51992;53.528;49.474;2023-11-21T03:57:33;0.25;;;0.25;;
65387;SDS011;51992;53.528;49.474;2023-11-21T03:59:59;0.03;;;0.03;;
65387;SDS011;51992;53.528;49.474;2023-11-21T04:02:25;0.00;;;0.00;;
65387;SDS011;51992;53.528;49.474;2023-11-21T04:04:51;0.00;;;0.00;;
65387;SDS011;51992;53.528;49.474;2023-11-21T04:07:17;0.00;;;0.00;;
65387;SDS011;51992;53.528;49.474;2023-11-21T04:09:43;0.10;;;0.10;;
65387;SDS011;51992;53.528;49.474;2023-11-21T04:12:08;0.03;;;0.03;;
65387;SDS011;51992;53.528;49.474;2023-11-21T04:14:35;0.00;;;0.00;;
65387;SDS011;51992;53.528;49.474;2023-11-21T04:17:00;0.00;;;0.00;;
65387;SDS011;51992;53.528;49.474;2023-11-21T04:19:26;0.20;;;0.20;;
65387;SDS011;51992;53.528;49.474;2023-11-21T04:21:52;0.17;;;0.17;;
65387;SDS011;51992;53.528;49.474;2023-11-21T04:24:18;0.00;;;0.00;;
65387;SDS011;51992;53.528;49.474;2023-11-21T04:26:44;0.00;;;0.00;;
65387;SDS011;51992;53.528;49.474;2023-11-21T04:29:09;0.00;;;0.00;;
65387;SDS011;51992;53.528;49.474;2023-11-21T04:31:35;0.08;;;0.08;;
65387;SDS011;51992;53.528;49.474;2023-11-21T04:34:01;0.00;;;0.00;;
65387;SDS011;51992;53.528;49.474;2023-11-21T04:36:29;0.10;;;0.10;;
65387;SDS011;51992;53.528;49.474;2023-11-21T04:38:56;0.00;;;0.00;;
65387;SDS011;51992;53.528;49.474;2023-11-21T04:41:22;0.10;;;0.10;;
65387;SDS011;51992;53.528;49.474;2023-11-21T04:43:47;0.00;;;0.00;;
65387;SDS011;51992;53.528;49.474;2023-11-21T04:46:13;0.00;;;0.00;;
65387;SDS011;51992;53.528;49.474;2023-11-21T04:48:39;0.00;;;0.00;;
65387;SDS011;51992;53.528;49.474;2023-11-21T04:51:05;0.20;;;0.20;;
65387;SDS011;51992;53.528;49.474;2023-11-21T04:53:30;0.00;;;0.00;;
65387;SDS011;51992;53.528;49.474;2023-11-21T04:55:56;0.32;;;0.13;;
65387;SDS011;51992;53.528;49.474;2023-11-21T04:58:22;1.00;;;0.55;;
65387;SDS011;51992;53.528;49.474;2023-11-21T05:00:48;0.00;;;0.00;;
65387;SDS011;51992;53.528;49.474;2023-11-21T05:03:15;0.08;;;0.08;;
65387;SDS011;51992;53.528;49.474;2023-11-21T05:05:40;0.00;;;0.00;;
65387;SDS011;51992;53.528;49.474;2023-11-21T05:08:06;1.27;;;1.17;;
65387;SDS011;51992;53.528;49.474;2023-11-21T05:10:33;0.77;;;0.77;;
65387;SDS011;51992;53.528;49.474;2023-11-21T05:12:59;0.70;;;0.70;;
65387;SDS011;51992;53.528;49.474;2023-11-21T05:15:25;1.50;;;1.40;;
65387;SDS011;51992;53.528;49.474;2023-11-21T05:17:53;2.22;;;2.05;;
65387;SDS011;51992;53.528;49.474;2023-11-21T05:20:19;2.17;;;2.00;;
65387;SDS011;51992;53.528;49.474;2023-11-21T05:22:49;1.10;;;1.10;;
65387;SDS011;51992;53.528;49.474;2023-11-21T05:25:15;2.92;;;2.63;;
65387;SDS011;51992;53.528;49.474;2023-11-21T05:27:42;3.83;;;3.53;;
65387;SDS011;51992;53.528;49.474;2023-11-21T05:30:08;7.18;;;4.22;;
65387;SDS011;51992;53.528;49.474;2023-11-21T05:32:37;13.88;;;4.18;;
65387;SDS011;51992;53.528;49.474;2023-11-21T05:35:03;2.88;;;2.67;;
65387;SDS011;51992;53.528;49.474;2023-11-21T05:37:29;2.10;;;1.95;;
65387;SDS011;51992;53.528;49.474;2023-11-21T05:39:55;2.05;;;1.95;;
65387;SDS011;51992;53.528;49.474;2023-11-21T05:42:24;12.23;;;5.70;;
65387;SDS011;51992;53.528;49.474;2023-11-21T05:44:50;3.00;;;2.80;;
65387;SDS011;51992;53.528;49.474;2023-11-21T05:47:15;1.38;;;1.30;;
65387;SDS011;51992;53.528;49.474;2023-11-21T05:49:41;3.60;;;1.63;;
65387;SDS011;51992;53.528;49.474;2023-11-21T05:52:07;1.25;;;1.15;;
65387;SDS011;51992;53.528;49.474;2023-11-21T05:54:33;1.58;;;1.15;;
65387;SDS011;51992;53.528;49.474;2023-11-21T05:56:59;0.32;;;0.32;;
65387;SDS011;51992;53.528;49.474;2023-11-21T05:59:25;0.60;;;0.60;;
65387;SDS011;51992;53.528;49.474;2023-11-21T06:01:51;3.53;;;1.90;;
65387;SDS011;51992;53.528;49.474;2023-11-21T06:04:17;0.68;;;0.68;;
65387;SDS011;51992;53.528;49.474;2023-11-21T06:06:44;1.40;;;1.30;;
65387;SDS011;51992;53.528;49.474;2023-11-21T06:09:09;0.75;;;0.75;;
65387;SDS011;51992;53.528;49.474;2023-11-21T06:11:40;1.40;;;0.82;;
65387;SDS011;51992;53.528;49.474;2023-11-21T06:14:15;0.70;;;0.70;;
65387;SDS011;51992;53.528;49.474;2023-11-21T06:16:43;1.08;;;1.08;;
65387;SDS011;51992;53.528;49.474;2023-11-21T06:19:11;1.20;;;1.10;;
65387;SDS011;51992;53.528;49.474;2023-11-21T06:21:36;0.98;;;0.98;;
65387;SDS011;51992;53.528;49.474;2023-11-21T06:24:02;0.65;;;0.65;;
65387;SDS011;51992;53.528;49.474;2023-11-21T06:26:28;0.63;;;0.63;;
65387;SDS011;51992;53.528;49.474;2023-11-21T06:28:54;2.05;;;0.90;;
65387;SDS011;51992;53.528;49.474;2023-11-21T06:31:21;1.00;;;0.95;;
65387;SDS011;51992;53.528;49.474;2023-11-21T06:33:47;0.88;;;0.88;;
65387;SDS011;51992;53.528;49.474;2023-11-21T06:36:13;4.28;;;0.88;;
65387;SDS011;51992;53.528;49.474;2023-11-21T06:38:39;0.63;;;0.63;;
65387;SDS011;51992;53.528;49.474;2023-11-21T06:41:05;0.85;;;0.85;;
65387;SDS011;51992;53.528;49.474;2023-11-21T06:43:31;0.85;;;0.77;;
65387;SDS011;51992;53.528;49.474;2023-11-21T06:45:57;1.35;;;1.25;;
65387;SDS011;51992;53.528;49.474;2023-11-21T06:48:23;0.55;;;0.55;;
65387;SDS011;51992;53.528;49.474;2023-11-21T06:50:49;0.28;;;0.28;;
65387;SDS011;51992;53.528;49.474;2023-11-21T06:53:17;0.75;;;0.75;;
65387;SDS011;51992;53.528;49.474;2023-11-21T06:55:43;0.80;;;0.80;;
65387;SDS011;51992;53.528;49.474;2023-11-21T06:58:09;0.40;;;0.40;;
65387;SDS011;51992;53.528;49.474;2023-11-21T07:00:35;0.28;;;0.25;;
65387;SDS011;51992;53.528;49.474;2023-11-21T07:03:01;1.58;;;1.48;;
65387;SDS011;51992;53.528;49.474;2023-11-21T07:05:27;0.32;;;0.32;;
65387;SDS011;51992;53.528;49.474;2023-11-21T07:07:53;1.17;;;0.95;;
65387;SDS011;51992;53.528;49.474;2023-11-21T07:10:19;2.25;;;0.68;;
65387;SDS011;51992;53.528;49.474;2023-11-21T07:12:45;0.28;;;0.28;;
65387;SDS011;51992;53.528;49.474;2023-11-21T07:15:11;0.32;;;0.32;;
65387;SDS011;51992;53.528;49.474;2023-11-21T07:17:38;0.43;;;0.43;;
65387;SDS011;51992;53.528;49.474;2023-11-21T07:20:05;2.55;;;1.63;;
65387;SDS011;51992;53.528;49.474;2023-11-21T07:22:32;0.63;;;0.63;;
65387;SDS011;51992;53.528;49.474;2023-11-21T07:24:58;0.32;;;0.32;;
65387;SDS011;51992;53.528;49.474;2023-11-21T07:27:24;0.88;;;0.88;;
65387;SDS011;51992;53.528;49.474;2023-11-21T07:29:49;0.15;;;0.15;;
65387;SDS011;51992;53.528;49.474;2023-11-21T07:32:19;0.75;;;0.75;;
65387;SDS011;51992;53.528;49.474;2023-11-21T07:34:44;3.50;;;0.63;;
65387;SDS011;51992;53.528;49.474;2023-11-21T07:37:11;0.73;;;0.73;;
65387;SDS011;51992;53.528;49.474;2023-11-21T07:39:36;0.40;;;0.40;;
65387;SDS011;51992;53.528;49.474;2023-11-21T07:42:03;0.20;;;0.20;;
65387;SDS011;51992;53.528;49.474;2023-11-21T07:44:30;0.10;;;0.10;;
65387;SDS011;51992;53.528;49.474;2023-11-21T07:46:57;0.13;;;0.13;;
65387;SDS011;51992;53.528;49.474;2023-11-21T07:49:23;0.25;;;0.25;;
65387;SDS011;51992;53.528;49.474;2023-11-21T07:51:49;0.57;;;0.55;;
65387;SDS011;51992;53.528;49.474;2023-11-21T07:54:15;1.17;;;0.82;;
65387;SDS011;51992;53.528;49.474;2023-11-21T07:56:41;0.30;;;0.30;;
65387;SDS011;51992;53.528;49.474;2023-11-21T07:59:07;0.93;;;0.93;;
65387;SDS011;51992;53.528;49.474;2023-11-21T08:01:33;0.43;;;0.43;;
65387;SDS011;51992;53.528;49.474;2023-11-21T08:03:59;1.70;;;1.30;;
65387;SDS011;51992;53.528;49.474;2023-11-21T08:06:29;8.35;;;0.90;;
65387;SDS011;51992;53.528;49.474;2023-11-21T08:08:56;0.57;;;0.52;;
65387;SDS011;51992;53.528;49.474;2023-11-21T08:11:22;1.05;;;1.05;;
65387;SDS011;51992;53.528;49.474;2023-11-21T08:13:48;0.60;;;0.60;;
65387;SDS011;51992;53.528;49.474;2023-11-21T08:16:14;0.20;;;0.20;;
65387;SDS011;51992;53.528;49.474;2023-11-21T08:18:40;0.50;;;0.50;;
65387;SDS011;51992;53.528;49.474;2023-11-21T08:21:06;0.80;;;0.80;;
65387;SDS011;51992;53.528;49.474;2023-11-21T08:23:33;0.43;;;0.40;;
65387;SDS011;51992;53.528;49.474;2023-11-21T08:25:59;0.10;;;0.10;;
65387;SDS011;51992;53.528;49.474;2023-11-21T08:28:25;0.82;;;0.73;;
65387;SDS011;51992;53.528;49.474;2023-11-21T08:30:54;0.40;;;0.38;;
65387;SDS011;51992;53.528;49.474;2023-11-21T08:33:19;2.42;;;0.88;;
65387;SDS011;51992;53.528;49.474;2023-11-21T08:35:45;0.50;;;0.50;;
65387;SDS011;51992;53.528;49.474;2023-11-21T08:38:12;0.32;;;0.32;;
65387;SDS011;51992;53.528;49.474;2023-11-21T08:40:38;2.10;;;1.23;;
65387;SDS011;51992;53.528;49.474;2023-11-21T08:43:04;0.98;;;0.93;;
65387;SDS011;51992;53.528;49.474;2023-11-21T08:45:39;1.08;;;0.63;;
65387;SDS011;51992;53.528;49.474;2023-11-21T08:48:05;1.33;;;1.10;;
65387;SDS011;51992;53.528;49.474;2023-11-21T08:50:31;0.68;;;0.55;;
65387;SDS011;51992;53.528;49.474;2023-11-21T08:52:57;0.35;;;0.35;;
65387;SDS011;51992;53.528;49.474;2023-11-21T08:55:23;0.80;;;0.80;;
65387;SDS011;51992;53.528;49.474;2023-11-21T08:57:49;0.17;;;0.17;;
65387;SDS011;51992;53.528;49.474;2023-11-21T09:00:16;0.70;;;0.70;;
65387;SDS011;51992;53.528;49.474;2023-11-21T09:02:45;0.30;;;0.30;;
65387;SDS011;51992;53.528;49.474;2023-11-21T09:05:11;0.80;;;0.80;;
65387;SDS011;51992;53.528;49.474;2023-11-21T09:07:38;0.17;;;0.17;;
65387;SDS011;51992;53.528;49.474;2023-11-21T09:10:04;0.05;;;0.05;;
65387;SDS011;51992;53.528;49.474;2023-11-21T09:12:33;0.10;;;0.10;;
65387;SDS011;51992;53.528;49.474;2023-11-21T09:15:04;0.73;;;0.73;;
65387;SDS011;51992;53.528;49.474;2023-11-21T09:17:31;0.22;;;0.22;;
65387;SDS011;51992;53.528;49.474;2023-11-21T09:19:57;1.88;;;0.82;;
65387;SDS011;51992;53.528;49.474;2023-11-21T09:22:23;0.73;;;0.20;;
65387;SDS011;51992;53.528;49.474;2023-11-21T09:24:50;0.10;;;0.10;;
65387;SDS011;51992;53.528;49.474;2023-11-21T09:27:16;0.20;;;0.20;;
65387;SDS011;51992;53.528;49.474;2023-11-21T09:29:43;0.35;;;0.35;;
65387;SDS011;51992;53.528;49.474;2023-11-21T09:32:09;1.67;;;0.63;;
65387;SDS011;51992;53.528;49.474;2023-11-21T09:34:39;0.98;;;0.63;;
65387;SDS011;51992;53.528;49.474;2023-11-21T09:37:06;0.55;;;0.55;;
65387;SDS011;51992;53.528;49.474;2023-11-21T09:39:33;0.10;;;0.10;;
65387;SDS011;51992;53.528;49.474;2023-11-21T09:42:10;0.10;;;0.10;;
65387;SDS011;51992;53.528;49.474;2023-11-21T09:44:56;0.22;;;0.22;;
65387;SDS011;51992;53.528;49.474;2023-11-21T09:47:24;0.08;;;0.08;;
65387;SDS011;51992;53.528;49.474;2023-11-21T09:49:50;0.08;;;0.08;;
65387;SDS011;51992;53.528;49.474;2023-11-21T09:52:22;0.13;;;0.13;;
65387;SDS011;51992;53.528;49.474;2023-11-21T09:54:49;0.30;;;0.30;;
65387;SDS011;51992;53.528;49.474;2023-11-21T09:57:15;0.30;;;0.30;;
65387;SDS011;51992;53.528;49.474;2023-11-21T09:59:41;2.08;;;0.20;;
65387;SDS011;51992;53.528;49.474;2023-11-21T10:02:08;0.10;;;0.10;;
65387;SDS011;51992;53.528;49.474;2023-11-21T10:04:38;0.90;;;0.90;;
65387;SDS011;51992;53.528;49.474;2023-11-21T10:07:05;0.10;;;0.10;;
65387;SDS011;51992;53.528;49.474;2023-11-21T10:09:36;0.38;;;0.38;;
65387;SDS011;51992;53.528;49.474;2023-11-21T10:12:03;2.15;;;0.98;;
65387;SDS011;51992;53.528;49.474;2023-11-21T10:14:32;0.25;;;0.25;;
65387;SDS011;51992;53.528;49.474;2023-11-21T10:16:59;0.57;;;0.57;;
65387;SDS011;51992;53.528;49.474;2023-11-21T10:19:25;0.20;;;0.20;;
65387;SDS011;51992;53.528;49.474;2023-11-21T10:21:52;15.55;;;1.17;;
65387;SDS011;51992;53.528;49.474;2023-11-21T10:24:20;0.75;;;0.68;;
65387;SDS011;51992;53.528;49.474;2023-11-21T10:26:46;0.55;;;0.55;;
65387;SDS011;51992;53.528;49.474;2023-11-21T10:29:14;0.28;;;0.28;;
65387;SDS011;51992;53.528;49.474;2023-11-21T10:31:43;0.15;;;0.15;;
65387;SDS011;51992;53.528;49.474;2023-11-21T10:34:14;0.30;;;0.30;;
65387;SDS011;51992;53.528;49.474;2023-11-21T10:36:40;0.63;;;0.63;;
65387;SDS011;51992;53.528;49.474;2023-11-21T10:39:07;0.22;;;0.22;;
65387;SDS011;51992;53.528;49.474;2023-11-21T10:41:33;2.00;;;1.85;;
65387;SDS011;51992;53.528;49.474;2023-11-21T10:44:01;6.20;;;2.65;;
65387;SDS011;51992;53.528;49.474;2023-11-21T10:46:30;0.85;;;0.85;;
65387;SDS011;51992;53.528;49.474;2023-11-21T10:48:56;1.00;;;0.38;;
65387;SDS011;51992;53.528;49.474;2023-11-21T10:51:22;0.95;;;0.95;;
65387;SDS011;51992;53.528;49.474;2023-11-21T10:53:51;0.90;;;0.90;;
65387;SDS011;51992;53.528;49.474;2023-11-21T10:56:20;0.05;;;0.05;;
65387;SDS011;51992;53.528;49.474;2023-11-21T10:58:49;0.57;;;0.57;;
65387;SDS011;51992;53.528;49.474;2023-11-21T11:01:16;0.30;;;0.30;;
65387;SDS011;51992;53.528;49.474;2023-11-21T11:03:43;0.50;;;0.50;;
65387;SDS011;51992;53.528;49.474;2023-11-21T11:06:09;0.40;;;0.40;;
65387;SDS011;51992;53.528;49.474;2023-11-21T11:08:37;1.27;;;0.50;;
65387;SDS011;51992;53.528;49.474;2023-11-21T11:11:04;0.90;;;0.60;;
65387;SDS011;51992;53.528;49.474;2023-11-21T11:13:30;0.45;;;0.40;;
65387;SDS011;51992;53.528;49.474;2023-11-21T11:16:00;0.93;;;0.82;;
65387;SDS011;51992;53.528;49.474;2023-11-21T11:18:32;0.35;;;0.35;;
65387;SDS011;51992;53.528;49.474;2023-11-21T11:21:06;0.55;;;0.35;;
65387;SDS011;51992;53.528;49.474;2023-11-21T11:26:11;0.35;;;0.32;;
65387;SDS011;51992;53.528;49.474;2023-11-21T11:28:44;0.20;;;0.20;;
65387;SDS011;51992;53.528;49.474;2023-11-21T11:31:27;0.00;;;0.00;;
65387;SDS011;51992;53.528;49.474;2023-11-21T11:34:10;0.60;;;0.55;;
65387;SDS011;51992;53.528;49.474;2023-11-21T11:36:44;0.20;;;0.20;;
65387;SDS011;51992;53.528;49.474;2023-11-21T11:41:59;0.20;;;0.20;;
65387;SDS011;51992;53.528;49.474;2023-11-21T11:45:00;1.70;;;0.85;;
65387;SDS011;51992;53.528;49.474;2023-11-21T11:47:22;0.00;;;0.00;;
65387;SDS011;51992;53.528;49.474;2023-11-21T11:52:42;0.28;;;0.28;;
65387;SDS011;51992;53.528;49.474;2023-11-21T11:55:09;0.65;;;0.65;;
65387;SDS011;51992;53.528;49.474;2023-11-21T11:57:39;0.57;;;0.57;;
65387;SDS011;51992;53.528;49.474;2023-11-21T12:02:38;0.38;;;0.38;;
65387;SDS011;51992;53.528;49.474;2023-11-21T12:05:11;0.55;;;0.10;;
65387;SDS011;51992;53.528;49.474;2023-11-21T12:07:40;0.52;;;0.52;;
65387;SDS011;51992;53.528;49.474;2023-11-21T12:10:06;3.33;;;1.17;;
65387;SDS011;51992;53.528;49.474;2023-11-21T12:12:32;0.38;;;0.38;;
65387;SDS011;51992;53.528;49.474;2023-11-21T12:14:59;0.30;;;0.20;;
65387;SDS011;51992;53.528;49.474;2023-11-21T12:17:25;0.30;;;0.30;;
65387;SDS011;51992;53.528;49.474;2023-11-21T12:19:51;0.55;;;0.20;;
65387;SDS011;51992;53.528;49.474;2023-11-21T12:22:17;0.38;;;0.38;;
65387;SDS011;51992;53.528;49.474;2023-11-21T12:24:44;0.35;;;0.30;;
65387;SDS011;51992;53.528;49.474;2023-11-21T12:27:09;1.85;;;1.13;;
65387;SDS011;51992;53.528;49.474;2023-11-21T12:29:35;0.70;;;0.25;;
65387;SDS011;51992;53.528;49.474;2023-11-21T12:32:03;0.28;;;0.20;;
65387;SDS011;51992;53.528;49.474;2023-11-21T12:34:29;0.13;;;0.13;;
65387;SDS011;51992;53.528;49.474;2023-11-21T12:36:56;0.63;;;0.63;;
65387;SDS011;51992;53.528;49.474;2023-11-21T12:39:22;0.43;;;0.38;;
65387;SDS011;51992;53.528;49.474;2023-11-21T12:41:48;0.13;;;0.13;;
65387;SDS011;51992;53.528;49.474;2023-11-21T12:44:14;0.45;;;0.45;;
65387;SDS011;51992;53.528;49.474;2023-11-21T12:46:41;1.35;;;0.57;;
65387;SDS011;51992;53.528;49.474;2023-11-21T12:49:07;0.73;;;0.73;;
65387;SDS011;51992;53.528;49.474;2023-11-21T12:51:33;0.47;;;0.47;;
65387;SDS011;51992;53.528;49.474;2023-11-21T12:53:59;0.00;;;0.00;;
65387;SDS011;51992;53.528;49.474;2023-11-21T12:56:26;0.38;;;0.38;;
65387;SDS011;51992;53.528;49.474;2023-11-21T12:58:53;0.00;;;0.00;;
65387;SDS011;51992;53.528;49.474;2023-11-21T13:01:19;0.00;;;0.00;;
65387;SDS011;51992;53.528;49.474;2023-11-21T13:03:48;0.00;;;0.00;;
65387;SDS011;51992;53.528;49.474;2023-11-21T13:06:16;0.00;;;0.00;;
65387;SDS011;51992;53.528;49.474;2023-11-21T13:08:43;0.28;;;0.28;;
65387;SDS011;51992;53.528;49.474;2023-11-21T13:11:10;0.10;;;0.10;;
65387;SDS011;51992;53.528;49.474;2023-11-21T13:13:36;0.52;;;0.28;;
65387;SDS011;51992;53.528;49.474;2023-11-21T13:16:05;0.10;;;0.10;;
65387;SDS011;51992;53.528;49.474;2023-11-21T13:18:31;0.10;;;0.10;;
65387;SDS011;51992;53.528;49.474;2023-11-21T13:20:58;0.32;;;0.32;;
65387;SDS011;51992;53.528;49.474;2023-11-21T13:23:24;0.13;;;0.10;;
65387;SDS011;51992;53.528;49.474;2023-11-21T13:25:51;0.00;;;0.00;;
65387;SDS011;51992;53.528;49.474;2023-11-21T13:28:17;0.10;;;0.08;;
65387;SDS011;51992;53.528;49.474;2023-11-21T13:30:47;0.52;;;0.52;;
65387;SDS011;51992;53.528;49.474;2023-11-21T13:33:14;1.65;;;1.20;;
65387;SDS011;51992;53.528;49.474;2023-11-21T13:35:47;2.45;;;0.20;;
65387;SDS011;51992;53.528;49.474;2023-11-21T13:38:17;0.13;;;0.13;;
65387;SDS011;51992;53.528;49.474;2023-11-21T13:40:47;0.63;;;0.38;;
65387;SDS011;51992;53.528;49.474;2023-11-21T13:43:15;0.00;;;0.00;;
65387;SDS011;51992;53.528;49.474;2023-11-21T13:45:42;7.18;;;5.85;;
65387;SDS011;51992;53.528;49.474;2023-11-21T13:48:08;9.10;;;6.75;;
65387;SDS011;51992;53.528;49.474;2023-11-21T13:50:36;8.82;;;6.50;;
65387;SDS011;51992;53.528;49.474;2023-11-21T13:53:02;8.52;;;6.88;;
65387;SDS011;51992;53.528;49.474;2023-11-21T13:55:34;8.95;;;7.68;;
65387;SDS011;51992;53.528;49.474;2023-11-21T13:58:01;8.90;;;7.97;;
65387;SDS011;51992;53.528;49.474;2023-11-21T14:00:29;10.25;;;7.38;;
65387;SDS011;51992;53.528;49.474;2023-11-21T14:03:13;10.15;;;8.27;;
65387;SDS011;51992;53.528;49.474;2023-11-21T14:05:57;14.98;;;10.93;;
65387;SDS011;51992;53.528;49.474;2023-11-21T14:08:23;16.83;;;11.20;;
65387;SDS011;51992;53.528;49.474;2023-11-21T14:10:54;23.02;;;13.40;;
65387;SDS011;51992;53.528;49.474;2023-11-21T14:13:25;21.98;;;14.93;;
65387;SDS011;51992;53.528;49.474;2023-11-21T14:15:51;15.32;;;9.50;;
65387;SDS011;51992;53.528;49.474;2023-11-21T14:18:26;17.88;;;14.13;;
65387;SDS011;51992;53.528;49.474;2023-11-21T14:21:04;16.10;;;11.02;;
65387;SDS011;51992;53.528;49.474;2023-11-21T14:23:31;15.75;;;9.75;;
65387;SDS011;51992;53.528;49.474;2023-11-21T14:25:57;13.32;;;9.68;;
65387;SDS011;51992;53.528;49.474;2023-11-21T14:28:23;12.27;;;7.72;;
65387;SDS011;51992;53.528;49.474;2023-11-21T14:30:49;12.18;;;9.20;;
65387;SDS011;51992;53.528;49.474;2023-11-21T14:33:15;8.30;;;6.97;;
65387;SDS011;51992;53.528;49.474;2023-11-21T14:35:42;8.35;;;7.03;;
65387;SDS011;51992;53.528;49.474;2023-11-21T14:38:08;8.52;;;6.45;;
65387;SDS011;51992;53.528;49.474;2023-11-21T14:40:35;9.15;;;7.53;;
65387;SDS011;51992;53.528;49.474;2023-11-21T14:43:04;10.25;;;8.02;;